sensor_id;sensor_type;location;lat;lon;timestamp;temperature;humidity
7844;DHT22;3967;48.702;9.326;2023-04-21T00:01:30;6.80;99.90
7844;DHT22;3967;48.702;9.326;2023-04-21T00:03:58;6.90;99.90
7844;DHT22;3967;48.702;9.326;2023-04-21T00:06:28;6.80;99.90
7844;DHT22;3967;48.702;9.326;2023-04-21T00:08:56;6.70;99.90
7844;DHT22;3967;48.702;9.326;2023-04-21T00:11:23;6.80;99.90
7844;DHT22;3967;48.702;9.326;2023-04-21T00:13:53;6.70;99.90
7844;DHT22;3967;48.702;9.326;2023-04-21T00:16:19;6.70;99.90
7844;DHT22;3967;48.702;9.326;2023-04-21T00:18:46;6.70;99.90
7844;DHT22;3967;48.702;9.326;2023-04-21T00:21:13;6.80;99.90
7844;DHT22;3967;48.702;9.326;2023-04-21T00:23:40;6.80;99.90
7844;DHT22;3967;48.702;9.326;2023-04-21T00:26:06;6.70;99.90
7844;DHT22;3967;48.702;9.326;2023-04-21T00:28:33;6.70;99.90
7844;DHT22;3967;48.702;9.326;2023-04-21T00:31:00;6.90;99.90
7844;DHT22;3967;48.702;9.326;2023-04-21T00:33:26;7.00;99.90
7844;DHT22;3967;48.702;9.326;2023-04-21T00:35:53;7.10;99.90
7844;DHT22;3967;48.702;9.326;2023-04-21T00:38:20;7.10;99.90
7844;DHT22;3967;48.702;9.326;2023-04-21T00:40:46;7.20;99.90
7844;DHT22;3967;48.702;9.326;2023-04-21T00:43:13;7.30;99.90
7844;DHT22;3967;48.702;9.326;2023-04-21T00:45:40;7.40;99.90
7844;DHT22;3967;48.702;9.326;2023-04-21T00:48:06;7.40;99.90
7844;DHT22;3967;48.702;9.326;2023-04-21T00:50:33;7.40;99.90
7844;DHT22;3967;48.702;9.326;2023-04-21T00:53:00;7.10;99.90
7844;DHT22;3967;48.702;9.326;2023-04-21T00:55:27;7.00;99.90
7844;DHT22;3967;48.702;9.326;2023-04-21T00:57:54;6.90;99.90
7844;DHT22;3967;48.702;9.326;2023-04-21T01:00:22;6.80;99.90
7844;DHT22;3967;48.702;9.326;2023-04-21T01:02:49;6.90;99.90
7844;DHT22;3967;48.702;9.326;2023-04-21T01:05:16;7.00;99.90
7844;DHT22;3967;48.702;9.326;2023-04-21T01:07:43;6.80;99.90
7844;DHT22;3967;48.702;9.326;2023-04-21T01:10:10;6.80;99.90
7844;DHT22;3967;48.702;9.326;2023-04-21T01:12:44;6.60;99.90
7844;DHT22;3967;48.702;9.326;2023-04-21T01:15:12;6.70;99.90
7844;DHT22;3967;48.702;9.326;2023-04-21T01:17:42;6.80;99.90
7844;DHT22;3967;48.702;9.326;2023-04-21T01:20:11;6.90;99.90
7844;DHT22;3967;48.702;9.326;2023-04-21T01:22:41;6.80;99.90
7844;DHT22;3967;48.702;9.326;2023-04-21T01:25:10;6.80;99.90
7844;DHT22;3967;48.702;9.326;2023-04-21T01:27:37;6.90;99.90
7844;DHT22;3967;48.702;9.326;2023-04-21T01:30:05;6.90;99.90
7844;DHT22;3967;48.702;9.326;2023-04-21T01:32:32;6.80;99.90
7844;DHT22;3967;48.702;9.326;2023-04-21T01:34:59;6.90;99.90
7844;DHT22;3967;48.702;9.326;2023-04-21T01:37:29;7.00;99.90
7844;DHT22;3967;48.702;9.326;2023-04-21T01:39:58;7.00;99.90
7844;DHT22;3967;48.702;9.326;2023-04-21T01:42:27;7.00;99.90
7844;DHT22;3967;48.702;9.326;2023-04-21T01:44:55;7.00;99.90
7844;DHT22;3967;48.702;9.326;2023-04-21T01:47:23;6.90;99.90
7844;DHT22;3967;48.702;9.326;2023-04-21T01:49:50;6.80;99.90
7844;DHT22;3967;48.702;9.326;2023-04-21T01:52:17;6.80;99.90
7844;DHT22;3967;48.702;9.326;2023-04-21T01:54:44;6.60;99.90
7844;DHT22;3967;48.702;9.326;2023-04-21T01:57:10;6.80;99.90
7844;DHT22;3967;48.702;9.326;2023-04-21T01:59:37;6.90;99.90
7844;DHT22;3967;48.702;9.326;2023-04-21T02:02:04;6.80;99.90
7844;DHT22;3967;48.702;9.326;2023-04-21T02:04:31;6.80;99.90
7844;DHT22;3967;48.702;9.326;2023-04-21T02:06:58;6.70;99.90
7844;DHT22;3967;48.702;9.326;2023-04-21T02:09:25;6.80;99.90
7844;DHT22;3967;48.702;9.326;2023-04-21T02:11:54;6.90;99.90
7844;DHT22;3967;48.702;9.326;2023-04-21T02:14:20;6.90;99.90
7844;DHT22;3967;48.702;9.326;2023-04-21T02:16:47;6.90;99.90
7844;DHT22;3967;48.702;9.326;2023-04-21T02:19:14;6.90;99.90
7844;DHT22;3967;48.702;9.326;2023-04-21T02:21:40;6.80;99.90
7844;DHT22;3967;48.702;9.326;2023-04-21T02:24:07;6.90;99.90
7844;DHT22;3967;48.702;9.326;2023-04-21T02:26:34;6.80;99.90
7844;DHT22;3967;48.702;9.326;2023-04-21T02:29:01;6.80;99.90
7844;DHT22;3967;48.702;9.326;2023-04-21T02:31:28;6.70;99.90
7844;DHT22;3967;48.702;9.326;2023-04-21T02:33:55;6.70;99.90
7844;DHT22;3967;48.702;9.326;2023-04-21T02:36:22;6.70;99.90
7844;DHT22;3967;48.702;9.326;2023-04-21T02:38:48;6.70;99.90
7844;DHT22;3967;48.702;9.326;2023-04-21T02:41:16;6.70;99.90
7844;DHT22;3967;48.702;9.326;2023-04-21T02:43:43;6.70;99.90
7844;DHT22;3967;48.702;9.326;2023-04-21T02:46:09;6.70;99.90
7844;DHT22;3967;48.702;9.326;2023-04-21T02:48:36;6.60;99.90
7844;DHT22;3967;48.702;9.326;2023-04-21T02:51:03;6.60;99.90
7844;DHT22;3967;48.702;9.326;2023-04-21T02:53:30;6.60;99.90
7844;DHT22;3967;48.702;9.326;2023-04-21T02:55:57;6.70;99.90
7844;DHT22;3967;48.702;9.326;2023-04-21T02:58:24;6.60;99.90
7844;DHT22;3967;48.702;9.326;2023-04-21T03:00:51;6.50;99.90
7844;DHT22;3967;48.702;9.326;2023-04-21T03:03:17;6.40;99.90
7844;DHT22;3967;48.702;9.326;2023-04-21T03:05:45;6.50;99.90
7844;DHT22;3967;48.702;9.326;2023-04-21T03:08:13;6.40;99.90
7844;DHT22;3967;48.702;9.326;2023-04-21T03:10:40;6.50;99.90
7844;DHT22;3967;48.702;9.326;2023-04-21T03:13:07;6.40;99.90
7844;DHT22;3967;48.702;9.326;2023-04-21T03:15:33;6.40;99.90
7844;DHT22;3967;48.702;9.326;2023-04-21T03:18:01;6.40;99.90
7844;DHT22;3967;48.702;9.326;2023-04-21T03:20:28;6.40;99.90
7844;DHT22;3967;48.702;9.326;2023-04-21T03:22:55;6.40;99.90
7844;DHT22;3967;48.702;9.326;2023-04-21T03:25:21;6.40;99.90
7844;DHT22;3967;48.702;9.326;2023-04-21T03:27:48;6.30;99.90
7844;DHT22;3967;48.702;9.326;2023-04-21T03:30:15;6.30;99.90
7844;DHT22;3967;48.702;9.326;2023-04-21T03:32:42;6.20;99.90
7844;DHT22;3967;48.702;9.326;2023-04-21T03:35:08;6.20;99.90
7844;DHT22;3967;48.702;9.326;2023-04-21T03:37:37;6.20;99.90
7844;DHT22;3967;48.702;9.326;2023-04-21T03:40:04;6.10;99.90
7844;DHT22;3967;48.702;9.326;2023-04-21T03:42:31;6.10;99.90
7844;DHT22;3967;48.702;9.326;2023-04-21T03:45:02;6.10;99.90
7844;DHT22;3967;48.702;9.326;2023-04-21T03:47:28;6.20;99.90
7844;DHT22;3967;48.702;9.326;2023-04-21T03:49:57;6.10;99.90
7844;DHT22;3967;48.702;9.326;2023-04-21T03:52:23;6.10;99.90
7844;DHT22;3967;48.702;9.326;2023-04-21T03:54:51;6.10;99.90
7844;DHT22;3967;48.702;9.326;2023-04-21T03:57:17;6.00;99.90
7844;DHT22;3967;48.702;9.326;2023-04-21T03:59:44;6.00;99.90
7844;DHT22;3967;48.702;9.326;2023-04-21T04:02:11;6.00;99.90
7844;DHT22;3967;48.702;9.326;2023-04-21T04:04:38;5.90;99.90
7844;DHT22;3967;48.702;9.326;2023-04-21T04:07:05;5.80;99.90
7844;DHT22;3967;48.702;9.326;2023-04-21T04:09:33;5.70;99.90
7844;DHT22;3967;48.702;9.326;2023-04-21T04:11:59;5.70;99.90
7844;DHT22;3967;48.702;9.326;2023-04-21T04:14:29;5.70;99.90
7844;DHT22;3967;48.702;9.326;2023-04-21T04:16:57;5.70;99.90
7844;DHT22;3967;48.702;9.326;2023-04-21T04:19:29;5.60;99.90
7844;DHT22;3967;48.702;9.326;2023-04-21T04:21:58;5.60;99.90
7844;DHT22;3967;48.702;9.326;2023-04-21T04:24:25;5.50;99.90
7844;DHT22;3967;48.702;9.326;2023-04-21T04:26:52;5.40;99.90
7844;DHT22;3967;48.702;9.326;2023-04-21T04:29:21;5.20;99.90
7844;DHT22;3967;48.702;9.326;2023-04-21T04:31:51;5.20;99.90
7844;DHT22;3967;48.702;9.326;2023-04-21T04:34:18;5.00;99.90
7844;DHT22;3967;48.702;9.326;2023-04-21T04:36:45;5.20;99.90
7844;DHT22;3967;48.702;9.326;2023-04-21T04:39:15;5.10;99.90
7844;DHT22;3967;48.702;9.326;2023-04-21T04:41:41;5.00;99.90
7844;DHT22;3967;48.702;9.326;2023-04-21T04:44:08;5.00;99.90
7844;DHT22;3967;48.702;9.326;2023-04-21T04:46:36;4.80;99.90
7844;DHT22;3967;48.702;9.326;2023-04-21T04:49:04;4.90;99.90
7844;DHT22;3967;48.702;9.326;2023-04-21T04:51:31;4.70;99.90
7844;DHT22;3967;48.702;9.326;2023-04-21T04:53:59;4.70;99.90
7844;DHT22;3967;48.702;9.326;2023-04-21T04:56:26;4.80;99.90
7844;DHT22;3967;48.702;9.326;2023-04-21T04:58:55;4.90;99.90
7844;DHT22;3967;48.702;9.326;2023-04-21T05:01:21;4.80;99.90
7844;DHT22;3967;48.702;9.326;2023-04-21T05:03:53;4.90;99.90
7844;DHT22;3967;48.702;9.326;2023-04-21T05:06:23;4.90;99.90
7844;DHT22;3967;48.702;9.326;2023-04-21T05:08:49;5.00;99.90
7844;DHT22;3967;48.702;9.326;2023-04-21T05:11:16;4.80;99.90
7844;DHT22;3967;48.702;9.326;2023-04-21T05:13:43;4.90;99.90
7844;DHT22;3967;48.702;9.326;2023-04-21T05:16:09;5.10;99.90
7844;DHT22;3967;48.702;9.326;2023-04-21T05:18:39;5.30;99.90
7844;DHT22;3967;48.702;9.326;2023-04-21T05:21:06;5.50;99.90
7844;DHT22;3967;48.702;9.326;2023-04-21T05:23:33;5.70;99.90
7844;DHT22;3967;48.702;9.326;2023-04-21T05:25:59;5.50;99.90
7844;DHT22;3967;48.702;9.326;2023-04-21T05:28:30;5.20;99.90
7844;DHT22;3967;48.702;9.326;2023-04-21T05:30:57;5.10;99.90
7844;DHT22;3967;48.702;9.326;2023-04-21T05:33:24;5.00;99.90
7844;DHT22;3967;48.702;9.326;2023-04-21T05:35:52;4.90;99.90
7844;DHT22;3967;48.702;9.326;2023-04-21T05:38:18;4.80;99.90
7844;DHT22;3967;48.702;9.326;2023-04-21T05:40:54;4.70;99.90
7844;DHT22;3967;48.702;9.326;2023-04-21T05:43:21;4.80;99.90
7844;DHT22;3967;48.702;9.326;2023-04-21T05:45:48;4.80;99.90
7844;DHT22;3967;48.702;9.326;2023-04-21T05:48:15;5.10;99.90
7844;DHT22;3967;48.702;9.326;2023-04-21T05:50:42;5.40;99.90
7844;DHT22;3967;48.702;9.326;2023-04-21T05:53:08;5.50;99.90
7844;DHT22;3967;48.702;9.326;2023-04-21T05:55:36;5.60;99.90
7844;DHT22;3967;48.702;9.326;2023-04-21T05:58:03;5.70;99.90
7844;DHT22;3967;48.702;9.326;2023-04-21T06:00:29;5.60;99.90
7844;DHT22;3967;48.702;9.326;2023-04-21T06:02:56;5.60;99.90
7844;DHT22;3967;48.702;9.326;2023-04-21T06:05:23;5.50;99.90
7844;DHT22;3967;48.702;9.326;2023-04-21T06:07:50;5.90;99.90
7844;DHT22;3967;48.702;9.326;2023-04-21T06:10:17;6.00;99.90
7844;DHT22;3967;48.702;9.326;2023-04-21T06:12:44;6.30;99.90
7844;DHT22;3967;48.702;9.326;2023-04-21T06:15:11;6.40;99.90
7844;DHT22;3967;48.702;9.326;2023-04-21T06:17:38;6.40;99.90
7844;DHT22;3967;48.702;9.326;2023-04-21T06:20:06;6.00;99.90
7844;DHT22;3967;48.702;9.326;2023-04-21T06:22:33;6.10;99.90
7844;DHT22;3967;48.702;9.326;2023-04-21T06:25:00;6.40;99.90
7844;DHT22;3967;48.702;9.326;2023-04-21T06:27:27;6.50;99.90
7844;DHT22;3967;48.702;9.326;2023-04-21T06:29:54;6.70;99.90
7844;DHT22;3967;48.702;9.326;2023-04-21T06:32:22;6.80;99.90
7844;DHT22;3967;48.702;9.326;2023-04-21T06:34:48;6.70;99.90
7844;DHT22;3967;48.702;9.326;2023-04-21T06:37:15;6.70;99.90
7844;DHT22;3967;48.702;9.326;2023-04-21T06:39:45;6.90;99.90
7844;DHT22;3967;48.702;9.326;2023-04-21T06:42:12;7.10;99.90
7844;DHT22;3967;48.702;9.326;2023-04-21T06:44:39;7.20;99.90
7844;DHT22;3967;48.702;9.326;2023-04-21T06:47:07;7.30;99.90
7844;DHT22;3967;48.702;9.326;2023-04-21T06:49:34;7.40;99.90
7844;DHT22;3967;48.702;9.326;2023-04-21T06:52:03;7.30;99.90
7844;DHT22;3967;48.702;9.326;2023-04-21T06:54:30;7.20;99.90
7844;DHT22;3967;48.702;9.326;2023-04-21T06:56:57;7.20;99.90
7844;DHT22;3967;48.702;9.326;2023-04-21T06:59:24;7.20;99.90
7844;DHT22;3967;48.702;9.326;2023-04-21T07:01:51;7.00;99.90
7844;DHT22;3967;48.702;9.326;2023-04-21T07:04:18;7.40;99.90
7844;DHT22;3967;48.702;9.326;2023-04-21T07:06:48;7.50;99.90
7844;DHT22;3967;48.702;9.326;2023-04-21T07:09:15;7.50;99.90
7844;DHT22;3967;48.702;9.326;2023-04-21T07:11:41;7.70;99.90
7844;DHT22;3967;48.702;9.326;2023-04-21T07:14:08;7.80;99.90
7844;DHT22;3967;48.702;9.326;2023-04-21T07:16:35;7.80;99.90
7844;DHT22;3967;48.702;9.326;2023-04-21T07:19:02;7.80;99.90
7844;DHT22;3967;48.702;9.326;2023-04-21T07:21:29;7.70;99.90
7844;DHT22;3967;48.702;9.326;2023-04-21T07:23:57;7.90;99.90
7844;DHT22;3967;48.702;9.326;2023-04-21T07:26:24;8.10;99.90
7844;DHT22;3967;48.702;9.326;2023-04-21T07:28:51;8.00;99.90
7844;DHT22;3967;48.702;9.326;2023-04-21T07:31:18;8.10;99.90
7844;DHT22;3967;48.702;9.326;2023-04-21T07:33:45;8.10;99.90
7844;DHT22;3967;48.702;9.326;2023-04-21T07:36:12;8.00;99.90
7844;DHT22;3967;48.702;9.326;2023-04-21T07:38:39;8.00;99.90
7844;DHT22;3967;48.702;9.326;2023-04-21T07:41:12;8.10;99.90
7844;DHT22;3967;48.702;9.326;2023-04-21T07:43:39;8.40;99.90
7844;DHT22;3967;48.702;9.326;2023-04-21T07:46:06;8.60;99.90
7844;DHT22;3967;48.702;9.326;2023-04-21T07:48:33;8.70;99.90
7844;DHT22;3967;48.702;9.326;2023-04-21T07:51:00;8.80;99.90
7844;DHT22;3967;48.702;9.326;2023-04-21T07:53:28;9.00;99.90
7844;DHT22;3967;48.702;9.326;2023-04-21T07:55:56;9.40;99.90
7844;DHT22;3967;48.702;9.326;2023-04-21T07:58:23;9.70;99.90
7844;DHT22;3967;48.702;9.326;2023-04-21T08:00:50;10.00;99.90
7844;DHT22;3967;48.702;9.326;2023-04-21T08:03:17;10.00;99.90
7844;DHT22;3967;48.702;9.326;2023-04-21T08:05:44;9.60;99.90
7844;DHT22;3967;48.702;9.326;2023-04-21T08:08:12;9.90;99.90
7844;DHT22;3967;48.702;9.326;2023-04-21T08:10:39;10.00;99.90
7844;DHT22;3967;48.702;9.326;2023-04-21T08:13:06;10.10;99.90
7844;DHT22;3967;48.702;9.326;2023-04-21T08:15:33;10.00;99.90
7844;DHT22;3967;48.702;9.326;2023-04-21T08:18:00;10.30;99.90
7844;DHT22;3967;48.702;9.326;2023-04-21T08:20:30;10.40;99.90
7844;DHT22;3967;48.702;9.326;2023-04-21T08:22:57;10.50;99.90
7844;DHT22;3967;48.702;9.326;2023-04-21T08:25:23;10.60;99.90
7844;DHT22;3967;48.702;9.326;2023-04-21T08:27:50;10.70;99.90
7844;DHT22;3967;48.702;9.326;2023-04-21T08:30:18;11.00;99.90
7844;DHT22;3967;48.702;9.326;2023-04-21T08:32:45;10.50;99.90
7844;DHT22;3967;48.702;9.326;2023-04-21T08:35:12;10.70;99.90
7844;DHT22;3967;48.702;9.326;2023-04-21T08:37:39;10.80;99.90
7844;DHT22;3967;48.702;9.326;2023-04-21T08:40:06;10.60;99.90
7844;DHT22;3967;48.702;9.326;2023-04-21T08:42:34;10.90;99.90
7844;DHT22;3967;48.702;9.326;2023-04-21T08:45:02;11.00;99.90
7844;DHT22;3967;48.702;9.326;2023-04-21T08:47:31;11.20;99.90
7844;DHT22;3967;48.702;9.326;2023-04-21T08:49:58;11.30;99.60
7844;DHT22;3967;48.702;9.326;2023-04-21T08:52:25;11.60;98.30
7844;DHT22;3967;48.702;9.326;2023-04-21T08:54:52;11.50;97.30
7844;DHT22;3967;48.702;9.326;2023-04-21T08:57:21;11.50;97.50
7844;DHT22;3967;48.702;9.326;2023-04-21T08:59:48;11.60;98.20
7844;DHT22;3967;48.702;9.326;2023-04-21T09:02:16;11.50;98.40
7844;DHT22;3967;48.702;9.326;2023-04-21T09:04:47;11.50;97.50
7844;DHT22;3967;48.702;9.326;2023-04-21T09:07:45;11.70;98.00
7844;DHT22;3967;48.702;9.326;2023-04-21T09:10:12;11.90;97.90
7844;DHT22;3967;48.702;9.326;2023-04-21T09:12:39;12.40;97.50
7844;DHT22;3967;48.702;9.326;2023-04-21T09:15:09;12.40;96.70
7844;DHT22;3967;48.702;9.326;2023-04-21T09:17:38;12.50;96.70
7844;DHT22;3967;48.702;9.326;2023-04-21T09:20:17;12.60;95.40
7844;DHT22;3967;48.702;9.326;2023-04-21T09:22:49;12.70;95.10
7844;DHT22;3967;48.702;9.326;2023-04-21T09:25:20;12.80;94.90
7844;DHT22;3967;48.702;9.326;2023-04-21T09:27:47;13.00;95.20
7844;DHT22;3967;48.702;9.326;2023-04-21T09:30:18;13.30;94.80
7844;DHT22;3967;48.702;9.326;2023-04-21T09:32:45;13.10;93.50
7844;DHT22;3967;48.702;9.326;2023-04-21T09:35:12;13.20;93.80
7844;DHT22;3967;48.702;9.326;2023-04-21T09:37:42;13.30;93.00
7844;DHT22;3967;48.702;9.326;2023-04-21T09:40:12;13.70;93.30
7844;DHT22;3967;48.702;9.326;2023-04-21T09:42:40;13.70;92.70
7844;DHT22;3967;48.702;9.326;2023-04-21T09:45:10;13.40;91.70
7844;DHT22;3967;48.702;9.326;2023-04-21T09:47:41;13.90;92.40
7844;DHT22;3967;48.702;9.326;2023-04-21T09:50:11;13.90;90.90
7844;DHT22;3967;48.702;9.326;2023-04-21T09:52:39;14.00;91.80
7844;DHT22;3967;48.702;9.326;2023-04-21T09:55:11;13.90;92.40
7844;DHT22;3967;48.702;9.326;2023-04-21T09:57:39;14.10;92.50
7844;DHT22;3967;48.702;9.326;2023-04-21T10:00:08;14.30;91.90
7844;DHT22;3967;48.702;9.326;2023-04-21T10:02:47;14.40;92.40
7844;DHT22;3967;48.702;9.326;2023-04-21T10:05:14;14.50;91.70
7844;DHT22;3967;48.702;9.326;2023-04-21T10:07:43;14.60;92.00
7844;DHT22;3967;48.702;9.326;2023-04-21T10:10:33;14.60;91.40
7844;DHT22;3967;48.702;9.326;2023-04-21T10:13:01;14.60;91.70
7844;DHT22;3967;48.702;9.326;2023-04-21T10:15:33;14.70;91.60
7844;DHT22;3967;48.702;9.326;2023-04-21T10:18:14;14.70;91.30
7844;DHT22;3967;48.702;9.326;2023-04-21T10:21:10;14.70;90.80
7844;DHT22;3967;48.702;9.326;2023-04-21T10:23:52;14.90;91.60
7844;DHT22;3967;48.702;9.326;2023-04-21T10:26:25;14.70;90.80
7844;DHT22;3967;48.702;9.326;2023-04-21T10:28:57;14.70;90.90
7844;DHT22;3967;48.702;9.326;2023-04-21T10:31:35;15.00;91.00
7844;DHT22;3967;48.702;9.326;2023-04-21T10:36:33;15.30;92.00
7844;DHT22;3967;48.702;9.326;2023-04-21T10:39:04;15.50;91.10
7844;DHT22;3967;48.702;9.326;2023-04-21T10:41:32;15.50;91.10
7844;DHT22;3967;48.702;9.326;2023-04-21T10:44:01;15.60;90.60
7844;DHT22;3967;48.702;9.326;2023-04-21T10:46:50;15.50;90.50
7844;DHT22;3967;48.702;9.326;2023-04-21T10:54:47;15.00;90.50
7844;DHT22;3967;48.702;9.326;2023-04-21T10:57:33;15.30;90.80
7844;DHT22;3967;48.702;9.326;2023-04-21T11:00:00;15.30;90.90
7844;DHT22;3967;48.702;9.326;2023-04-21T11:02:30;15.40;91.00
7844;DHT22;3967;48.702;9.326;2023-04-21T11:05:01;15.30;90.70
7844;DHT22;3967;48.702;9.326;2023-04-21T11:07:28;15.60;91.30
7844;DHT22;3967;48.702;9.326;2023-04-21T11:12:28;15.90;90.90
7844;DHT22;3967;48.702;9.326;2023-04-21T11:14:56;15.60;90.30
7844;DHT22;3967;48.702;9.326;2023-04-21T11:17:26;15.50;90.30
7844;DHT22;3967;48.702;9.326;2023-04-21T11:19:54;15.80;90.40
7844;DHT22;3967;48.702;9.326;2023-04-21T11:22:25;15.70;89.80
7844;DHT22;3967;48.702;9.326;2023-04-21T11:24:54;16.10;90.20
7844;DHT22;3967;48.702;9.326;2023-04-21T11:27:27;16.30;90.00
7844;DHT22;3967;48.702;9.326;2023-04-21T11:29:56;16.50;90.20
7844;DHT22;3967;48.702;9.326;2023-04-21T11:32:23;16.30;89.30
7844;DHT22;3967;48.702;9.326;2023-04-21T11:34:50;16.10;88.80
7844;DHT22;3967;48.702;9.326;2023-04-21T11:37:35;16.30;88.20
7844;DHT22;3967;48.702;9.326;2023-04-21T11:40:02;16.70;89.80
7844;DHT22;3967;48.702;9.326;2023-04-21T11:42:31;16.70;88.00
7844;DHT22;3967;48.702;9.326;2023-04-21T11:45:01;16.70;87.20
7844;DHT22;3967;48.702;9.326;2023-04-21T11:47:27;16.50;85.50
7844;DHT22;3967;48.702;9.326;2023-04-21T11:50:01;16.70;84.20
7844;DHT22;3967;48.702;9.326;2023-04-21T11:52:33;16.50;84.10
7844;DHT22;3967;48.702;9.326;2023-04-21T11:55:05;16.60;84.30
7844;DHT22;3967;48.702;9.326;2023-04-21T11:57:41;16.70;84.00
7844;DHT22;3967;48.702;9.326;2023-04-21T12:00:12;16.70;85.70
7844;DHT22;3967;48.702;9.326;2023-04-21T12:02:42;17.00;84.80
7844;DHT22;3967;48.702;9.326;2023-04-21T12:05:11;17.20;84.50
7844;DHT22;3967;48.702;9.326;2023-04-21T12:07:43;17.00;85.10
7844;DHT22;3967;48.702;9.326;2023-04-21T12:10:12;17.40;84.40
7844;DHT22;3967;48.702;9.326;2023-04-21T12:12:42;17.20;82.60
7844;DHT22;3967;48.702;9.326;2023-04-21T12:15:11;17.20;82.10
7844;DHT22;3967;48.702;9.326;2023-04-21T12:17:42;17.20;82.50
7844;DHT22;3967;48.702;9.326;2023-04-21T12:20:09;16.90;81.90
7844;DHT22;3967;48.702;9.326;2023-04-21T12:22:36;17.10;83.60
7844;DHT22;3967;48.702;9.326;2023-04-21T12:25:04;17.10;80.90
7844;DHT22;3967;48.702;9.326;2023-04-21T12:27:31;17.10;82.10
7844;DHT22;3967;48.702;9.326;2023-04-21T12:29:58;17.20;81.10
7844;DHT22;3967;48.702;9.326;2023-04-21T12:32:24;17.10;80.70
7844;DHT22;3967;48.702;9.326;2023-04-21T12:34:52;17.40;81.70
7844;DHT22;3967;48.702;9.326;2023-04-21T12:37:18;17.50;81.60
7844;DHT22;3967;48.702;9.326;2023-04-21T12:39:45;17.60;80.40
7844;DHT22;3967;48.702;9.326;2023-04-21T12:42:12;17.60;80.50
7844;DHT22;3967;48.702;9.326;2023-04-21T12:44:39;17.60;80.80
7844;DHT22;3967;48.702;9.326;2023-04-21T12:47:06;17.40;80.10
7844;DHT22;3967;48.702;9.326;2023-04-21T12:49:33;17.50;81.80
7844;DHT22;3967;48.702;9.326;2023-04-21T12:51:59;17.60;81.60
7844;DHT22;3967;48.702;9.326;2023-04-21T12:54:26;17.80;79.20
7844;DHT22;3967;48.702;9.326;2023-04-21T12:56:53;17.60;80.30
7844;DHT22;3967;48.702;9.326;2023-04-21T12:59:20;17.60;80.90
7844;DHT22;3967;48.702;9.326;2023-04-21T13:01:47;17.60;78.50
7844;DHT22;3967;48.702;9.326;2023-04-21T13:04:14;17.60;78.50
7844;DHT22;3967;48.702;9.326;2023-04-21T13:06:41;17.70;76.40
7844;DHT22;3967;48.702;9.326;2023-04-21T13:09:08;17.90;76.30
7844;DHT22;3967;48.702;9.326;2023-04-21T13:11:34;18.00;77.40
7844;DHT22;3967;48.702;9.326;2023-04-21T13:14:01;18.00;77.80
7844;DHT22;3967;48.702;9.326;2023-04-21T13:16:30;17.80;78.20
7844;DHT22;3967;48.702;9.326;2023-04-21T13:18:57;18.00;75.30
7844;DHT22;3967;48.702;9.326;2023-04-21T13:21:23;18.30;77.30
7844;DHT22;3967;48.702;9.326;2023-04-21T13:23:50;18.10;74.60
7844;DHT22;3967;48.702;9.326;2023-04-21T13:26:17;18.00;74.00
7844;DHT22;3967;48.702;9.326;2023-04-21T13:28:44;18.10;73.10
7844;DHT22;3967;48.702;9.326;2023-04-21T13:31:11;18.00;72.90
7844;DHT22;3967;48.702;9.326;2023-04-21T13:33:40;18.10;73.10
7844;DHT22;3967;48.702;9.326;2023-04-21T13:36:07;18.10;72.40
7844;DHT22;3967;48.702;9.326;2023-04-21T13:38:38;17.90;71.40
7844;DHT22;3967;48.702;9.326;2023-04-21T13:41:06;18.20;71.80
7844;DHT22;3967;48.702;9.326;2023-04-21T13:43:33;18.20;71.60
7844;DHT22;3967;48.702;9.326;2023-04-21T13:46:00;18.20;72.60
7844;DHT22;3967;48.702;9.326;2023-04-21T13:48:27;18.20;74.20
7844;DHT22;3967;48.702;9.326;2023-04-21T13:50:55;18.30;72.00
7844;DHT22;3967;48.702;9.326;2023-04-21T13:53:22;18.50;71.60
7844;DHT22;3967;48.702;9.326;2023-04-21T13:55:49;18.70;71.40
7844;DHT22;3967;48.702;9.326;2023-04-21T13:58:16;18.60;72.70
7844;DHT22;3967;48.702;9.326;2023-04-21T14:00:43;18.50;72.60
7844;DHT22;3967;48.702;9.326;2023-04-21T14:03:10;18.60;73.40
7844;DHT22;3967;48.702;9.326;2023-04-21T14:05:37;18.80;73.30
7844;DHT22;3967;48.702;9.326;2023-04-21T14:08:05;18.80;72.40
7844;DHT22;3967;48.702;9.326;2023-04-21T14:10:31;18.70;72.40
7844;DHT22;3967;48.702;9.326;2023-04-21T14:12:59;18.70;72.80
7844;DHT22;3967;48.702;9.326;2023-04-21T14:15:26;18.80;73.40
7844;DHT22;3967;48.702;9.326;2023-04-21T14:17:52;18.70;72.00
7844;DHT22;3967;48.702;9.326;2023-04-21T14:20:19;18.60;72.40
7844;DHT22;3967;48.702;9.326;2023-04-21T14:22:46;18.80;73.40
7844;DHT22;3967;48.702;9.326;2023-04-21T14:25:13;19.10;72.70
7844;DHT22;3967;48.702;9.326;2023-04-21T14:27:40;18.70;73.10
7844;DHT22;3967;48.702;9.326;2023-04-21T14:30:07;18.80;74.20
7844;DHT22;3967;48.702;9.326;2023-04-21T14:32:36;18.90;73.80
7844;DHT22;3967;48.702;9.326;2023-04-21T14:35:06;19.00;74.00
7844;DHT22;3967;48.702;9.326;2023-04-21T14:37:35;18.80;74.50
7844;DHT22;3967;48.702;9.326;2023-04-21T14:40:02;18.90;73.80
7844;DHT22;3967;48.702;9.326;2023-04-21T14:42:29;18.70;74.10
7844;DHT22;3967;48.702;9.326;2023-04-21T14:44:56;18.90;75.00
7844;DHT22;3967;48.702;9.326;2023-04-21T14:47:23;19.00;73.60
7844;DHT22;3967;48.702;9.326;2023-04-21T14:49:50;19.00;74.30
7844;DHT22;3967;48.702;9.326;2023-04-21T14:52:21;19.00;74.80
7844;DHT22;3967;48.702;9.326;2023-04-21T14:54:50;19.00;75.20
7844;DHT22;3967;48.702;9.326;2023-04-21T14:57:17;19.00;75.80
7844;DHT22;3967;48.702;9.326;2023-04-21T14:59:48;18.90;74.80
7844;DHT22;3967;48.702;9.326;2023-04-21T15:02:15;19.00;74.50
7844;DHT22;3967;48.702;9.326;2023-04-21T15:04:42;18.90;74.10
7844;DHT22;3967;48.702;9.326;2023-04-21T15:07:11;19.10;74.20
7844;DHT22;3967;48.702;9.326;2023-04-21T15:09:41;19.10;73.80
7844;DHT22;3967;48.702;9.326;2023-04-21T15:12:12;19.00;75.00
7844;DHT22;3967;48.702;9.326;2023-04-21T15:14:39;19.10;75.50
7844;DHT22;3967;48.702;9.326;2023-04-21T15:17:06;19.00;76.10
7844;DHT22;3967;48.702;9.326;2023-04-21T15:19:33;18.90;75.40
7844;DHT22;3967;48.702;9.326;2023-04-21T15:22:00;18.90;75.60
7844;DHT22;3967;48.702;9.326;2023-04-21T15:24:26;19.00;75.40
7844;DHT22;3967;48.702;9.326;2023-04-21T15:26:53;19.10;75.40
7844;DHT22;3967;48.702;9.326;2023-04-21T15:29:20;19.20;75.10
7844;DHT22;3967;48.702;9.326;2023-04-21T15:31:47;19.30;75.40
7844;DHT22;3967;48.702;9.326;2023-04-21T15:34:13;19.20;74.80
7844;DHT22;3967;48.702;9.326;2023-04-21T15:36:40;19.20;74.90
7844;DHT22;3967;48.702;9.326;2023-04-21T15:39:07;18.90;75.10
7844;DHT22;3967;48.702;9.326;2023-04-21T15:41:34;18.90;75.30
7844;DHT22;3967;48.702;9.326;2023-04-21T15:44:04;18.80;75.60
7844;DHT22;3967;48.702;9.326;2023-04-21T15:46:33;18.60;76.00
7844;DHT22;3967;48.702;9.326;2023-04-21T15:49:00;18.70;76.60
7844;DHT22;3967;48.702;9.326;2023-04-21T15:51:27;18.80;76.70
7844;DHT22;3967;48.702;9.326;2023-04-21T15:53:54;19.00;75.90
7844;DHT22;3967;48.702;9.326;2023-04-21T15:56:21;19.10;76.60
7844;DHT22;3967;48.702;9.326;2023-04-21T15:58:47;19.10;77.00
7844;DHT22;3967;48.702;9.326;2023-04-21T16:03:50;19.40;76.10
7844;DHT22;3967;48.702;9.326;2023-04-21T16:06:18;19.30;75.90
7844;DHT22;3967;48.702;9.326;2023-04-21T16:08:46;19.30;75.70
7844;DHT22;3967;48.702;9.326;2023-04-21T16:11:13;19.20;76.40
7844;DHT22;3967;48.702;9.326;2023-04-21T16:13:40;19.10;77.30
7844;DHT22;3967;48.702;9.326;2023-04-21T16:16:07;19.00;77.10
7844;DHT22;3967;48.702;9.326;2023-04-21T16:18:37;19.00;74.20
7844;DHT22;3967;48.702;9.326;2023-04-21T16:21:04;19.10;70.50
7844;DHT22;3967;48.702;9.326;2023-04-21T16:23:30;19.10;69.10
7844;DHT22;3967;48.702;9.326;2023-04-21T16:25:57;19.10;68.70
7844;DHT22;3967;48.702;9.326;2023-04-21T16:28:24;19.10;69.00